Banning, CA (92220)

12:35 PM PST on December 27, 2014 (GMT -0800)
Banning Equestrian Estates | Change Station
CLOSE
Current Station
Personal Weather Station
Location: Banning, CA
Elevation: 2516 ft
Nearby Weather Stations

Elev 2516 ft 33.94 °N, 116.89 °W | Updated 6 minutes ago

Clear
Clear
47.7 °F
Feels Like 45 °F
N
6.3
Wind Variable Wind from SSW

Today
High -- | Low -- °F
--% Chance of Precip.
Yesterday
High -- | Low -- °F
Precip. -- in
6:51 AM 4:46 PM
Waxing Crescent, 40% visible
Pressure 30.30 in
Visibility 10.0 miles
Clouds Clear
Windchill 45 °F
Dew Point 14 °F
Humidity 25%
Rainfall 0.00 in
Snow Depth Not available.
UV 4 out of 12
Pollen 5.80 out of 12
Air Quality Not available.
Flu Activity Not available.
METAR KRIV 271958Z AUTO 32002KT 10SM CLR 12/M10 A3029 RMK AO2 SLP258 T01161101

More Conditions Fewer Conditions

Pressure 30.30 in
Visibility 10.0 miles
Clouds Clear
Windchill 45 °F
Dew Point 14 °F
Humidity 25%
Rainfall 0.00 in
Snow Depth Not available.
UV 4 out of 12
Pollen 5.80 out of 12
Air Quality Not available.
Flu Activity Not available.
METAR KRIV 271958Z AUTO 32002KT 10SM CLR 12/M10 A3029 RMK AO2 SLP258 T01161101

More Conditions Fewer Conditions

10-Day Weather Forecast

Almanac

Astronomy

Dec. 27, 2014 Rise Set
Actual Time
Civil Twilight
Nautical Twilight
Astronomical Twilight
Moon
Length of Visible Light
Length of Day
Tomorrow will be .
, % of the Moon is Illuminated

Today's Extremes

State Highs State Lows

Community

WunderPhotos

Upload Photos

1,781,048 photos uploaded!

WunderBlogs® & News

Nearby

Air Quality

  Air Quality AQ Index Pollutant
Not available.

Snow Depth

Station Depth Elevation

Earthquake Activity

City Distance Mag. Time & Date
Minimum magnitude displayed is 2.5.

Coastal Water Temperatures

Place Temperature

Nearby Weather Stations